Time;durP1;ratioP1;P1;durP2;ratioP2;P2;SDS_P1;SDS_P2;PMS_P1;PMS_P2;Temp;Humidity;BMP_temperature;BMP_pressure;BME280_temperature;BME280_humidity;BME280_pressure;Samples;Min_cycle;Max_cycle;Signal;HPM_P1;HPM_P2
2021/03/27 00:00:58;;;;;;;101.40;51.40;;;;;;;;;;5060545;28;20048;-88
2021/03/27 00:03:27;;;;;;;94.72;50.22;;;;;;;;;;5060565;28;20457;-89
2021/03/27 00:06:05;;;;;;;93.70;49.75;;;;;;;;;;5067148;28;20037;-88
2021/03/27 00:08:40;;;;;;;99.68;52.83;;;;;;;;;;5060034;28;20028;-88
2021/03/27 00:11:30;;;;;;;94.20;50.00;;;;;;;;;;5062515;28;20112;-88
2021/03/27 00:14:01;;;;;;;97.25;50.53;;;;;;;;;;5023890;28;20032;-88
2021/03/27 00:16:30;;;;;;;96.00;49.28;;;;;;;;;;5066702;28;20032;-89
2021/03/27 00:19:05;;;;;;;98.20;51.90;;;;;;;;;;5055903;28;20503;-89
2021/03/27 00:21:43;;;;;;;89.43;49.28;;;;;;;;;;5078251;28;20063;-89
2021/03/27 00:24:25;;;;;;;94.63;50.38;;;;;;;;;;5068780;28;20096;-88
2021/03/27 00:27:04;;;;;;;93.65;49.80;;;;;;;;;;5094451;28;20049;-88
2021/03/27 00:29:34;;;;;;;94.47;49.17;;;;;;;;;;5083058;28;20049;-88
2021/03/27 00:32:03;;;;;;;97.45;49.58;;;;;;;;;;5054443;28;20040;-88
2021/03/27 00:34:31;;;;;;;93.93;48.65;;;;;;;;;;5083353;28;20031;-88
2021/03/27 00:37:00;;;;;;;87.78;46.03;;;;;;;;;;5060592;28;20029;-88
2021/03/27 00:39:43;;;;;;;92.07;47.38;;;;;;;;;;5056157;28;20099;-88
2021/03/27 00:42:12;;;;;;;93.03;47.78;;;;;;;;;;5063796;28;20031;-88
2021/03/27 00:44:54;;;;;;;95.47;48.13;;;;;;;;;;5055733;28;20037;-88
2021/03/27 00:47:25;;;;;;;82.38;45.92;;;;;;;;;;5055047;28;20021;-88
2021/03/27 00:49:57;;;;;;;93.63;46.78;;;;;;;;;;5055618;28;20021;-88
2021/03/27 00:52:24;;;;;;;86.30;45.42;;;;;;;;;;5058348;28;20087;-88
2021/03/27 00:54:56;;;;;;;83.72;46.33;;;;;;;;;;5058135;28;20092;-88
2021/03/27 00:57:32;;;;;;;85.30;44.38;;;;;;;;;;5054027;28;20492;-87
2021/03/27 01:00:34;;;;;;;84.82;44.95;;;;;;;;;;5073448;28;20681;-88
2021/03/27 01:03:05;;;;;;;91.35;46.53;;;;;;;;;;5015466;28;20030;-88
2021/03/27 01:05:33;;;;;;;94.43;45.65;;;;;;;;;;5049001;28;20033;-88
2021/03/27 01:07:59;;;;;;;88.47;45.42;;;;;;;;;;5055488;28;20122;-88
2021/03/27 01:10:46;;;;;;;81.15;45.00;;;;;;;;;;5074184;28;20039;-88
2021/03/27 01:13:15;;;;;;;84.20;45.00;;;;;;;;;;5030428;28;20064;-88
2021/03/27 01:15:43;;;;;;;82.65;45.53;;;;;;;;;;5055863;28;20028;-88
2021/03/27 01:18:11;;;;;;;93.00;46.08;;;;;;;;;;5058811;28;20029;-88
2021/03/27 01:20:40;;;;;;;88.18;44.60;;;;;;;;;;5057491;28;20063;-88
2021/03/27 01:23:06;;;;;;;85.50;43.65;;;;;;;;;;5073174;28;20048;-88
2021/03/27 01:25:34;;;;;;;85.85;44.60;;;;;;;;;;5050405;28;20045;-88
2021/03/27 01:28:16;;;;;;;85.95;46.40;;;;;;;;;;5063209;28;20082;-88
2021/03/27 01:30:53;;;;;;;93.85;44.85;;;;;;;;;;5045719;28;20068;-88
2021/03/27 01:33:42;;;;;;;92.30;45.97;;;;;;;;;;5054633;28;20087;-88
2021/03/27 01:36:13;;;;;;;77.70;43.67;;;;;;;;;;5030217;28;20071;-88
2021/03/27 01:38:42;;;;;;;91.88;45.67;;;;;;;;;;5058181;28;20499;-88
2021/03/27 01:41:15;;;;;;;78.70;42.65;;;;;;;;;;5043236;28;20029;-88
2021/03/27 01:43:52;;;;;;;56.20;32.22;;;;;;;;;;5081890;28;20115;-88
2021/03/27 01:46:40;;;;;;;83.22;44.08;;;;;;;;;;5060447;28;20106;-88
2021/03/27 01:49:09;;;;;;;77.68;42.30;;;;;;;;;;5057126;28;20113;-88
2021/03/27 01:51:51;;;;;;;85.57;45.15;;;;;;;;;;5065514;28;20044;-88
2021/03/27 01:54:19;;;;;;;83.88;44.00;;;;;;;;;;5056602;28;20079;-88
2021/03/27 01:57:07;;;;;;;72.03;42.13;;;;;;;;;;5060442;28;20124;-88
2021/03/27 01:59:36;;;;;;;81.05;42.10;;;;;;;;;;5056475;28;20029;-88
2021/03/27 02:02:09;;;;;;;81.25;41.90;;;;;;;;;;5059661;28;20025;-88
2021/03/27 02:04:41;;;;;;;82.22;42.88;;;;;;;;;;5056094;28;20025;-88
2021/03/27 02:07:23;;;;;;;80.70;41.75;;;;;;;;;;5053430;28;20120;-89
2021/03/27 02:10:05;;;;;;;81.18;42.42;;;;;;;;;;5071217;28;20016;-88
2021/03/27 02:12:37;;;;;;;79.65;41.40;;;;;;;;;;5063934;28;20036;-88
2021/03/27 02:15:18;;;;;;;81.63;42.88;;;;;;;;;;5058582;28;20029;-88
2021/03/27 02:17:52;;;;;;;90.68;43.33;;;;;;;;;;5062204;28;20033;-88
2021/03/27 02:20:37;;;;;;;87.45;44.10;;;;;;;;;;5059527;28;20119;-88
2021/03/27 02:23:16;;;;;;;81.63;41.05;;;;;;;;;;5069452;28;20141;-88
2021/03/27 02:26:12;;;;;;;79.70;41.50;;;;;;;;;;5054830;28;20102;-88
2021/03/27 02:28:44;;;;;;;75.40;42.28;;;;;;;;;;5017536;28;20133;-88
2021/03/27 02:31:36;;;;;;;76.57;42.42;;;;;;;;;;5052711;28;20487;-88
2021/03/27 02:34:21;;;;;;;78.13;40.97;;;;;;;;;;5049110;28;20041;-88
2021/03/27 02:37:03;;;;;;;75.45;40.50;;;;;;;;;;5052695;28;20473;-88
2021/03/27 02:39:52;;;;;;;78.65;41.90;;;;;;;;;;5069722;28;20036;-88
2021/03/27 02:42:31;;;;;;;75.25;40.50;;;;;;;;;;5008246;28;20033;-88
2021/03/27 02:45:16;;;;;;;76.25;41.30;;;;;;;;;;5060215;28;20055;-88
2021/03/27 02:47:45;;;;;;;85.38;44.97;;;;;;;;;;5054604;28;20482;-88
2021/03/27 02:50:16;;;;;;;72.30;38.30;;;;;;;;;;5053175;28;20152;-88
2021/03/27 02:52:57;;;;;;;78.07;40.17;;;;;;;;;;5052460;28;20536;-89
2021/03/27 02:55:26;;;;;;;81.40;42.22;;;;;;;;;;5059111;28;20119;-89
2021/03/27 02:57:58;;;;;;;76.68;40.80;;;;;;;;;;5052228;28;20029;-88
2021/03/27 03:00:40;;;;;;;73.50;38.28;;;;;;;;;;5066515;28;20115;-88
2021/03/27 03:03:17;;;;;;;68.28;38.10;;;;;;;;;;5058765;28;20033;-88
2021/03/27 03:05:53;;;;;;;72.38;38.72;;;;;;;;;;5055097;28;20425;-89
2021/03/27 03:08:24;;;;;;;70.03;37.88;;;;;;;;;;5052155;28;20040;-88
2021/03/27 03:10:57;;;;;;;72.60;39.55;;;;;;;;;;5057502;28;20059;-89
2021/03/27 03:13:35;;;;;;;67.70;38.50;;;;;;;;;;5056723;28;20052;-88
2021/03/27 03:16:13;;;;;;;70.13;39.00;;;;;;;;;;5052087;28;20138;-89
2021/03/27 03:18:59;;;;;;;68.13;37.22;;;;;;;;;;5056150;28;20075;-88
2021/03/27 03:21:27;;;;;;;67.97;36.08;;;;;;;;;;5048039;28;20037;-89
2021/03/27 03:24:12;;;;;;;63.65;34.38;;;;;;;;;;5054042;28;20126;-88
2021/03/27 03:26:41;;;;;;;67.68;34.72;;;;;;;;;;5051563;28;20029;-88
2021/03/27 03:29:18;;;;;;;61.25;35.05;;;;;;;;;;5068801;28;20036;-88
2021/03/27 03:32:03;;;;;;;61.63;34.80;;;;;;;;;;5054820;28;20123;-88
2021/03/27 03:34:39;;;;;;;63.33;35.45;;;;;;;;;;5056649;28;20032;-88
2021/03/27 03:37:15;;;;;;;67.35;33.42;;;;;;;;;;5050940;28;20470;-88
2021/03/27 03:39:41;;;;;;;58.20;33.33;;;;;;;;;;5070270;28;20017;-89
2021/03/27 03:42:07;;;;;;;65.13;34.20;;;;;;;;;;5060854;28;20499;-88
2021/03/27 03:45:00;;;;;;;70.75;35.25;;;;;;;;;;5063612;28;20469;-88
2021/03/27 03:47:44;;;;;;;64.10;33.97;;;;;;;;;;5033874;28;20045;-89
2021/03/27 03:50:26;;;;;;;57.13;31.77;;;;;;;;;;5056378;28;20579;-88
2021/03/27 03:53:04;;;;;;;63.58;32.22;;;;;;;;;;5051926;28;20481;-88
2021/03/27 03:55:44;;;;;;;59.38;33.92;;;;;;;;;;5051018;28;20389;-88
2021/03/27 03:58:18;;;;;;;59.78;31.92;;;;;;;;;;5060170;28;20074;-88
2021/03/27 04:00:51;;;;;;;60.70;32.80;;;;;;;;;;5052109;28;20064;-88
2021/03/27 04:03:34;;;;;;;58.63;31.80;;;;;;;;;;5077185;28;20033;-89
2021/03/27 04:06:01;;;;;;;59.03;31.50;;;;;;;;;;5045074;28;20071;-89
2021/03/27 04:08:43;;;;;;;58.20;32.53;;;;;;;;;;5056675;28;20033;-89
2021/03/27 04:11:28;;;;;;;55.33;31.60;;;;;;;;;;5061037;28;20037;-88
2021/03/27 04:13:55;;;;;;;60.83;32.50;;;;;;;;;;5050075;28;20560;-88
2021/03/27 04:16:23;;;;;;;60.88;31.65;;;;;;;;;;5069219;28;20029;-88
2021/03/27 04:18:57;;;;;;;55.95;30.35;;;;;;;;;;5051244;28;20074;-89
2021/03/27 04:21:36;;;;;;;61.22;31.73;;;;;;;;;;5054858;28;20128;-89
2021/03/27 04:24:10;;;;;;;56.58;30.63;;;;;;;;;;5049765;28;20096;-89
2021/03/27 04:26:36;;;;;;;57.03;30.08;;;;;;;;;;5052861;28;20098;-89
2021/03/27 04:29:11;;;;;;;55.60;30.27;;;;;;;;;;5058322;28;20033;-89
2021/03/27 04:31:44;;;;;;;52.55;28.80;;;;;;;;;;5056885;28;20114;-88
2021/03/27 04:34:17;;;;;;;56.33;30.92;;;;;;;;;;5059844;28;20029;-89
2021/03/27 04:36:46;;;;;;;59.30;30.75;;;;;;;;;;5055027;28;20500;-88
2021/03/27 04:39:16;;;;;;;51.30;26.77;;;;;;;;;;5058398;28;20029;-89
2021/03/27 04:41:48;;;;;;;48.88;28.23;;;;;;;;;;5051539;28;20492;-88
2021/03/27 04:44:14;;;;;;;50.40;28.30;;;;;;;;;;5071361;28;20480;-88
2021/03/27 04:46:50;;;;;;;55.22;28.58;;;;;;;;;;5052700;28;20046;-88
2021/03/27 04:49:40;;;;;;;50.03;26.80;;;;;;;;;;5055779;28;20521;-89
2021/03/27 04:52:08;;;;;;;50.20;26.90;;;;;;;;;;5047542;28;20123;-88
2021/03/27 04:54:39;;;;;;;51.28;27.52;;;;;;;;;;5053242;28;20029;-89
2021/03/27 04:57:05;;;;;;;52.47;27.02;;;;;;;;;;5058376;28;20559;-88
2021/03/27 04:59:58;;;;;;;53.97;27.50;;;;;;;;;;5051164;28;20029;-88
2021/03/27 05:02:35;;;;;;;44.92;26.02;;;;;;;;;;5050271;28;20135;-88
2021/03/27 05:05:12;;;;;;;47.72;26.33;;;;;;;;;;5051505;28;20029;-89
2021/03/27 05:07:46;;;;;;;47.08;25.95;;;;;;;;;;5054226;28;20056;-89
2021/03/27 05:10:12;;;;;;;;;;;;;;;;;;5046509;28;20150;-88
2021/03/27 05:12:38;;;;;;;48.10;26.88;;;;;;;;;;5050604;28;20027;-88
2021/03/27 05:15:07;;;;;;;42.92;25.30;;;;;;;;;;5050623;28;20028;-89
2021/03/27 05:17:45;;;;;;;49.38;26.65;;;;;;;;;;5053508;28;20021;-88
2021/03/27 05:20:17;;;;;;;47.15;25.30;;;;;;;;;;5050006;28;20438;-89
2021/03/27 05:23:02;;;;;;;47.22;26.70;;;;;;;;;;5074916;28;20461;-88
2021/03/27 05:25:28;;;;;;;50.97;27.58;;;;;;;;;;5048717;28;20029;-89
2021/03/27 05:28:03;;;;;;;52.20;27.02;;;;;;;;;;5065558;28;20504;-89
2021/03/27 05:30:45;;;;;;;47.33;26.48;;;;;;;;;;5052167;28;20377;-88
2021/03/27 05:33:29;;;;;;;48.08;25.73;;;;;;;;;;5050577;28;20025;-88
2021/03/27 05:36:22;;;;;;;51.63;28.20;;;;;;;;;;5074869;28;20435;-89
2021/03/27 05:38:54;;;;;;;49.13;26.48;;;;;;;;;;5019935;28;20040;-88
2021/03/27 05:41:39;;;;;;;46.55;27.08;;;;;;;;;;5054133;28;20526;-89
2021/03/27 05:44:05;;;;;;;49.88;27.10;;;;;;;;;;5053601;28;20025;-88
2021/03/27 05:46:49;;;;;;;54.60;26.42;;;;;;;;;;5054428;28;20539;-88
2021/03/27 05:49:33;;;;;;;43.10;25.40;;;;;;;;;;5050276;28;20552;-88
2021/03/27 05:52:29;;;;;;;42.75;24.70;;;;;;;;;;5055262;28;20029;-88
2021/03/27 05:54:55;;;;;;;47.67;25.85;;;;;;;;;;5010595;28;20049;-89
2021/03/27 05:57:35;;;;;;;42.58;23.45;;;;;;;;;;5066348;28;20025;-88
2021/03/27 06:00:27;;;;;;;43.83;23.92;;;;;;;;;;5053107;28;20119;-89
2021/03/27 06:03:09;;;;;;;46.22;24.42;;;;;;;;;;5059416;28;20012;-89
2021/03/27 06:05:35;;;;;;;42.42;23.25;;;;;;;;;;5056652;28;20021;-89
2021/03/27 06:08:16;;;;;;;40.40;23.80;;;;;;;;;;5054199;28;20029;-88
2021/03/27 06:11:01;;;;;;;39.50;23.45;;;;;;;;;;5054341;28;20033;-88
2021/03/27 06:13:43;;;;;;;37.90;22.33;;;;;;;;;;5060392;28;20366;-88
2021/03/27 06:16:25;;;;;;;40.93;22.53;;;;;;;;;;5055221;28;20027;-88
2021/03/27 06:19:10;;;;;;;39.78;22.20;;;;;;;;;;5052479;28;20029;-88
2021/03/27 06:21:40;;;;;;;36.28;21.90;;;;;;;;;;5052142;28;20025;-89
2021/03/27 06:24:35;;;;;;;37.88;21.88;;;;;;;;;;5073029;28;20060;-89
2021/03/27 06:27:08;;;;;;;41.97;21.88;;;;;;;;;;5064285;28;20025;-88
2021/03/27 06:29:34;;;;;;;;;;;;;;;;;;5055813;28;20057;-88
2021/03/27 06:32:19;;;;;;;38.35;20.88;;;;;;;;;;5060579;28;19952;-89
2021/03/27 06:34:48;;;;;;;30.92;18.42;;;;;;;;;;5050844;28;20120;-88
2021/03/27 06:37:33;;;;;;;33.92;18.92;;;;;;;;;;5054062;28;20045;-88
2021/03/27 06:40:18;;;;;;;32.75;18.05;;;;;;;;;;5052825;28;20036;-89
2021/03/27 06:43:02;;;;;;;33.38;17.77;;;;;;;;;;5057708;28;20522;-88
2021/03/27 06:45:47;;;;;;;34.33;17.58;;;;;;;;;;5047205;28;20033;-88
2021/03/27 06:48:48;;;;;;;30.40;16.98;;;;;;;;;;5051891;28;20024;-89
2021/03/27 06:51:50;;;;;;;31.25;16.65;;;;;;;;;;5051803;28;20120;-89
2021/03/27 06:54:16;;;;;;;33.95;18.45;;;;;;;;;;4961904;28;20400;-88
2021/03/27 06:56:49;;;;;;;31.77;17.10;;;;;;;;;;5025980;28;20444;-89
2021/03/27 06:59:18;;;;;;;31.23;16.92;;;;;;;;;;5046323;28;20525;-89
2021/03/27 07:02:03;;;;;;;29.92;17.05;;;;;;;;;;5055469;28;20480;-89
2021/03/27 07:04:37;;;;;;;29.95;16.55;;;;;;;;;;5058187;28;20052;-90
2021/03/27 07:07:12;;;;;;;28.58;14.60;;;;;;;;;;5052421;28;20052;-90
2021/03/27 07:09:57;;;;;;;26.73;16.48;;;;;;;;;;5075104;28;20024;-89
2021/03/27 07:12:42;;;;;;;28.65;16.48;;;;;;;;;;5067665;28;20029;-89
2021/03/27 07:15:14;;;;;;;27.25;17.02;;;;;;;;;;5057807;28;20049;-89
2021/03/27 07:17:56;;;;;;;29.83;17.90;;;;;;;;;;5076495;28;20036;-90
2021/03/27 07:20:35;;;;;;;37.92;19.33;;;;;;;;;;5050121;28;20021;-90
2021/03/27 07:23:20;;;;;;;41.65;20.20;;;;;;;;;;5053549;28;20106;-91
2021/03/27 07:25:49;;;;;;;37.05;20.80;;;;;;;;;;5075467;28;20500;-92
2021/03/27 07:28:28;;;;;;;41.55;20.52;;;;;;;;;;5071904;28;20013;-90
2021/03/27 07:31:08;;;;;;;38.47;20.20;;;;;;;;;;5052382;28;20469;-91
2021/03/27 07:33:38;;;;;;;37.53;20.67;;;;;;;;;;5060261;28;20029;-92
2021/03/27 07:36:34;;;;;;;35.30;20.27;;;;;;;;;;5052434;28;20143;-92
2021/03/27 07:39:13;;;;;;;34.38;19.23;;;;;;;;;;5050775;28;20040;-92
2021/03/27 07:42:06;;;;;;;36.55;20.52;;;;;;;;;;5043448;28;20033;-92
2021/03/27 07:44:41;;;;;;;39.85;20.33;;;;;;;;;;5069336;28;20562;-91
2021/03/27 07:47:20;;;;;;;39.50;20.83;;;;;;;;;;5054455;28;20033;-91
2021/03/27 07:50:13;;;;;;;40.50;21.23;;;;;;;;;;5057974;28;20055;-90
2021/03/27 07:52:54;;;;;;;44.10;21.98;;;;;;;;;;5060929;28;20044;-90
2021/03/27 07:55:39;;;;;;;43.42;22.02;;;;;;;;;;5051019;28;20044;-91
2021/03/27 07:58:20;;;;;;;18.48;9.07;;;;;;;;;;5045549;28;20035;-91
2021/03/27 08:01:03;;;;;;;7.57;4.50;;;;;;;;;;5054963;28;20025;-91
2021/03/27 08:03:41;;;;;;;5.38;2.25;;;;;;;;;;5064363;28;20055;-89
2021/03/27 08:06:14;;;;;;;1.75;1.30;;;;;;;;;;5040659;28;20037;-89
2021/03/27 08:08:59;;;;;;;2.03;1.25;;;;;;;;;;5052769;28;20120;-90
2021/03/27 08:11:40;;;;;;;1.10;0.90;;;;;;;;;;5051692;28;20439;-90
2021/03/27 08:14:19;;;;;;;2.55;0.90;;;;;;;;;;5051610;28;20572;-90
2021/03/27 08:16:57;;;;;;;1.95;0.90;;;;;;;;;;5051329;28;20056;-89
2021/03/27 08:19:26;;;;;;;1.38;0.90;;;;;;;;;;5053906;28;20033;-89
2021/03/27 08:22:05;;;;;;;2.15;1.10;;;;;;;;;;5051400;28;20120;-89
2021/03/27 08:24:49;;;;;;;1.30;0.57;;;;;;;;;;5045092;28;20033;-90
2021/03/27 08:27:37;;;;;;;2.10;0.70;;;;;;;;;;5050481;28;20025;-89
2021/03/27 08:30:23;;;;;;;0.90;0.80;;;;;;;;;;5052508;28;20111;-89
2021/03/27 08:33:13;;;;;;;1.33;0.80;;;;;;;;;;5050478;28;20127;-89
2021/03/27 08:35:57;;;;;;;2.88;1.08;;;;;;;;;;5049249;28;20021;-89
2021/03/27 08:38:35;;;;;;;1.83;1.15;;;;;;;;;;5049567;28;20018;-89
2021/03/27 08:41:19;;;;;;;2.78;1.52;;;;;;;;;;5051731;28;20087;-89
2021/03/27 08:44:05;;;;;;;5.03;1.65;;;;;;;;;;5049163;28;20075;-89
2021/03/27 08:46:37;;;;;;;5.38;1.83;;;;;;;;;;5043386;28;20668;-89
2021/03/27 08:49:06;;;;;;;3.03;2.00;;;;;;;;;;5050541;28;20091;-89
2021/03/27 08:51:42;;;;;;;3.65;2.13;;;;;;;;;;5054102;28;20029;-89
2021/03/27 08:54:27;;;;;;;2.53;2.03;;;;;;;;;;5054991;28;20116;-89
2021/03/27 08:57:15;;;;;;;3.75;2.05;;;;;;;;;;5044134;28;20037;-89
2021/03/27 09:00:14;;;;;;;2.33;1.80;;;;;;;;;;5054756;28;20020;-89
2021/03/27 09:02:46;;;;;;;2.55;1.83;;;;;;;;;;5019853;28;20033;-89
2021/03/27 09:05:21;;;;;;;3.58;2.20;;;;;;;;;;5042648;28;20147;-89
2021/03/27 09:07:47;;;;;;;2.35;1.50;;;;;;;;;;5047541;28;20116;-88
2021/03/27 09:10:32;;;;;;;8.82;1.95;;;;;;;;;;5055308;28;20031;-88
2021/03/27 09:13:12;;;;;;;4.40;2.05;;;;;;;;;;5049296;28;20029;-88
2021/03/27 09:15:51;;;;;;;1.95;1.75;;;;;;;;;;5056132;28;20288;-88
2021/03/27 09:18:35;;;;;;;3.50;1.65;;;;;;;;;;5064386;28;20051;-88
2021/03/27 09:21:20;;;;;;;2.22;1.60;;;;;;;;;;5050814;28;20141;-89
2021/03/27 09:24:05;;;;;;;2.67;1.70;;;;;;;;;;5051092;28;20049;-88
2021/03/27 09:26:50;;;;;;;2.40;1.60;;;;;;;;;;5052127;28;20033;-88
2021/03/27 09:29:22;;;;;;;2.13;1.40;;;;;;;;;;5053986;28;20549;-89
2021/03/27 09:31:55;;;;;;;1.77;1.50;;;;;;;;;;5058326;28;20033;-88
2021/03/27 09:34:36;;;;;;;1.60;1.30;;;;;;;;;;5053833;28;20029;-89
2021/03/27 09:37:05;;;;;;;2.30;1.55;;;;;;;;;;5055597;28;20025;-88
2021/03/27 09:39:38;;;;;;;1.77;1.63;;;;;;;;;;5066495;28;20056;-88
2021/03/27 09:42:32;;;;;;;3.50;1.50;;;;;;;;;;5054644;28;20116;-88
2021/03/27 09:45:04;;;;;;;3.05;1.55;;;;;;;;;;5047662;28;20045;-88
2021/03/27 09:47:47;;;;;;;3.03;1.40;;;;;;;;;;5042309;28;20036;-88
2021/03/27 09:50:25;;;;;;;3.13;2.10;;;;;;;;;;5041425;28;20040;-88
2021/03/27 09:53:04;;;;;;;3.78;2.08;;;;;;;;;;5059681;28;20025;-88
2021/03/27 09:55:40;;;;;;;2.60;2.03;;;;;;;;;;5054891;28;20477;-88
2021/03/27 09:58:24;;;;;;;2.85;2.13;;;;;;;;;;5055416;28;20413;-88
2021/03/27 10:00:55;;;;;;;3.05;2.33;;;;;;;;;;5054869;28;20017;-88
2021/03/27 10:03:40;;;;;;;4.00;2.53;;;;;;;;;;5063982;28;20044;-88
2021/03/27 10:06:25;;;;;;;3.65;2.83;;;;;;;;;;5059859;28;20064;-88
2021/03/27 10:09:03;;;;;;;3.55;2.75;;;;;;;;;;5059519;28;20028;-88
2021/03/27 10:11:31;;;;;;;4.28;2.80;;;;;;;;;;5058891;28;20037;-88
2021/03/27 10:14:10;;;;;;;3.10;2.70;;;;;;;;;;5054194;28;20033;-88
2021/03/27 10:16:49;;;;;;;5.35;2.75;;;;;;;;;;5054367;28;20039;-88
2021/03/27 10:19:18;;;;;;;5.30;3.50;;;;;;;;;;5052918;28;20065;-88
2021/03/27 10:22:00;;;;;;;3.35;2.92;;;;;;;;;;5042383;28;20029;-88
2021/03/27 10:24:41;;;;;;;4.15;3.17;;;;;;;;;;5054500;28;20100;-88
2021/03/27 10:27:13;;;;;;;5.55;3.47;;;;;;;;;;5054174;28;20082;-89
2021/03/27 10:29:41;;;;;;;4.28;3.08;;;;;;;;;;5054000;28;20550;-88
2021/03/27 10:32:25;;;;;;;3.45;2.85;;;;;;;;;;5054764;28;20029;-88
2021/03/27 10:34:57;;;;;;;4.50;2.88;;;;;;;;;;5054762;28;20489;-88
2021/03/27 10:37:36;;;;;;;5.97;2.95;;;;;;;;;;5053917;28;20029;-88
2021/03/27 10:40:31;;;;;;;4.80;2.88;;;;;;;;;;5054006;28;20029;-89
2021/03/27 10:43:22;;;;;;;5.05;2.60;;;;;;;;;;5055500;28;20028;-90
2021/03/27 10:45:55;;;;;;;2.65;1.90;;;;;;;;;;5066706;28;20064;-90
2021/03/27 10:48:40;;;;;;;4.90;1.65;;;;;;;;;;5064975;28;20116;-90
2021/03/27 10:51:06;;;;;;;2.22;1.33;;;;;;;;;;5033489;28;20029;-90
2021/03/27 10:53:44;;;;;;;2.80;1.98;;;;;;;;;;5050434;28;20036;-90
2021/03/27 10:56:15;;;;;;;3.10;1.58;;;;;;;;;;5046179;28;20064;-89
2021/03/27 10:58:57;;;;;;;2.60;1.70;;;;;;;;;;5047352;28;20103;-89
2021/03/27 11:01:23;;;;;;;3.00;1.13;;;;;;;;;;5051818;28;20017;-90
2021/03/27 11:04:08;;;;;;;5.75;1.60;;;;;;;;;;5048391;28;20056;-90
2021/03/27 11:06:37;;;;;;;7.88;1.83;;;;;;;;;;5050916;28;20029;-90
2021/03/27 11:09:19;;;;;;;3.03;1.27;;;;;;;;;;5050660;28;20435;-90
2021/03/27 11:12:03;;;;;;;3.30;1.65;;;;;;;;;;5056209;28;20036;-90
2021/03/27 11:14:49;;;;;;;5.97;1.48;;;;;;;;;;5050920;28;20498;-90
2021/03/27 11:17:22;;;;;;;5.05;1.65;;;;;;;;;;5069236;28;20006;-90
2021/03/27 11:19:56;;;;;;;7.00;1.85;;;;;;;;;;5069876;28;20054;-90
2021/03/27 11:22:30;;;;;;;9.50;2.35;;;;;;;;;;5045956;28;20048;-89
2021/03/27 11:25:02;;;;;;;7.75;1.95;;;;;;;;;;5050666;28;20041;-89
2021/03/27 11:27:28;;;;;;;5.70;1.67;;;;;;;;;;5047926;28;20055;-89
2021/03/27 11:30:02;;;;;;;2.85;2.00;;;;;;;;;;5053776;28;20041;-89
2021/03/27 11:32:38;;;;;;;4.63;1.80;;;;;;;;;;5051616;28;20036;-88
2021/03/27 11:35:11;;;;;;;3.80;1.85;;;;;;;;;;5048653;28;20033;-89
2021/03/27 11:38:00;;;;;;;5.68;1.83;;;;;;;;;;5047548;28;20025;-88
2021/03/27 11:40:32;;;;;;;5.00;1.85;;;;;;;;;;5049500;28;20083;-89
2021/03/27 11:43:10;;;;;;;6.22;2.20;;;;;;;;;;5063064;28;20068;-89
2021/03/27 11:45:36;;;;;;;5.85;2.00;;;;;;;;;;5056045;28;20037;-90
2021/03/27 11:48:05;;;;;;;7.07;2.08;;;;;;;;;;5051162;28;20427;-89
2021/03/27 11:50:35;;;;;;;5.38;2.10;;;;;;;;;;5060965;28;20039;-89
2021/03/27 11:53:07;;;;;;;7.35;2.40;;;;;;;;;;5057354;28;20060;-89
2021/03/27 11:55:39;;;;;;;5.10;2.47;;;;;;;;;;5050883;28;20025;-89
2021/03/27 11:58:14;;;;;;;9.25;2.70;;;;;;;;;;5053498;28;20091;-88
2021/03/27 12:01:03;;;;;;;5.10;2.92;;;;;;;;;;5055739;28;20029;-89
2021/03/27 12:03:48;;;;;;;3.53;2.45;;;;;;;;;;5050550;28;20024;-89
2021/03/27 12:06:33;;;;;;;9.25;2.63;;;;;;;;;;5051244;28;20086;-89
2021/03/27 12:09:09;;;;;;;5.32;2.28;;;;;;;;;;5047051;28;20149;-89
2021/03/27 12:11:54;;;;;;;4.32;2.20;;;;;;;;;;5046456;28;20566;-89
2021/03/27 12:14:26;;;;;;;4.22;2.08;;;;;;;;;;5057532;28;20033;-89
2021/03/27 12:17:01;;;;;;;4.43;2.25;;;;;;;;;;5054569;28;20079;-90
2021/03/27 12:19:32;;;;;;;5.72;2.03;;;;;;;;;;5044338;28;20028;-91
2021/03/27 12:22:17;;;;;;;3.75;1.90;;;;;;;;;;5051771;28;20053;-89
2021/03/27 12:24:52;;;;;;;4.35;2.03;;;;;;;;;;5051233;28;20037;-89
2021/03/27 12:27:26;;;;;;;6.72;2.00;;;;;;;;;;5053619;28;20920;-89
2021/03/27 12:30:01;;;;;;;4.75;2.10;;;;;;;;;;5057062;28;20087;-89
2021/03/27 12:32:27;;;;;;;7.85;2.40;;;;;;;;;;5048532;28;20049;-89
2021/03/27 12:34:55;;;;;;;4.70;2.10;;;;;;;;;;5054872;28;20165;-89
2021/03/27 12:37:37;;;;;;;4.13;1.85;;;;;;;;;;5049400;28;20030;-89
2021/03/27 12:40:07;;;;;;;2.85;1.60;;;;;;;;;;5045506;28;20799;-89
2021/03/27 12:42:52;;;;;;;9.10;1.98;;;;;;;;;;5037809;28;20029;-87
2021/03/27 12:45:24;;;;;;;14.40;1.95;;;;;;;;;;5047575;28;20033;-88
2021/03/27 12:47:53;;;;;;;6.88;1.80;;;;;;;;;;5050432;28;20123;-88
2021/03/27 12:50:28;;;;;;;4.57;1.90;;;;;;;;;;5042871;28;20028;-88
2021/03/27 12:53:13;;;;;;;4.25;2.42;;;;;;;;;;5062580;28;20013;-89
2021/03/27 12:55:41;;;;;;;4.75;2.40;;;;;;;;;;5051968;28;20028;-90
2021/03/27 12:58:10;;;;;;;4.25;2.00;;;;;;;;;;5052157;28;20048;-90
2021/03/27 13:00:46;;;;;;;6.10;2.10;;;;;;;;;;5059431;28;20092;-90
2021/03/27 13:03:31;;;;;;;3.63;1.80;;;;;;;;;;5050762;28;20048;-89
2021/03/27 13:06:16;;;;;;;2.88;1.60;;;;;;;;;;5050976;28;20039;-89
2021/03/27 13:08:45;;;;;;;3.63;2.00;;;;;;;;;;5043588;28;20635;-89
2021/03/27 13:11:23;;;;;;;3.45;1.38;;;;;;;;;;5053111;28;20035;-89
2021/03/27 13:14:27;;;;;;;2.58;1.25;;;;;;;;;;5056512;28;20149;-89
2021/03/27 13:16:54;;;;;;;;;;;;;;;;;;5040080;28;20205;-89
2021/03/27 13:19:29;;;;;;;1.40;0.90;;;;;;;;;;5050562;28;19905;-89
2021/03/27 13:21:58;;;;;;;3.22;0.90;;;;;;;;;;5040533;28;20424;-89
2021/03/27 13:24:33;;;;;;;2.97;1.02;;;;;;;;;;5050716;28;20095;-88
2021/03/27 13:27:07;;;;;;;2.28;1.00;;;;;;;;;;5043293;28;20108;-89
2021/03/27 13:29:38;;;;;;;1.65;1.08;;;;;;;;;;5050603;28;20116;-88
2021/03/27 13:32:10;;;;;;;2.05;1.00;;;;;;;;;;5049476;28;20063;-89
2021/03/27 13:34:38;;;;;;;2.33;1.08;;;;;;;;;;5050392;28;20040;-88
2021/03/27 13:37:07;;;;;;;1.75;1.05;;;;;;;;;;5049644;28;20428;-88
2021/03/27 13:39:44;;;;;;;1.35;1.00;;;;;;;;;;5037119;28;20069;-88
2021/03/27 13:42:21;;;;;;;2.97;1.55;;;;;;;;;;5055017;28;20025;-89
2021/03/27 13:45:00;;;;;;;1.38;0.90;;;;;;;;;;5047576;28;20425;-90
2021/03/27 13:47:41;;;;;;;2.70;1.10;;;;;;;;;;5048297;28;20044;-88
2021/03/27 13:50:19;;;;;;;2.97;1.13;;;;;;;;;;5048931;28;20095;-88
2021/03/27 13:52:57;;;;;;;2.38;1.20;;;;;;;;;;5059622;28;20025;-88
2021/03/27 13:55:39;;;;;;;1.15;0.93;;;;;;;;;;5038267;28;20372;-88
2021/03/27 13:58:20;;;;;;;2.15;1.00;;;;;;;;;;5038921;28;20036;-88
2021/03/27 14:01:04;;;;;;;1.85;0.80;;;;;;;;;;5053623;28;20028;-88
2021/03/27 14:03:55;;;;;;;2.38;1.15;;;;;;;;;;5053122;28;20536;-88
2021/03/27 14:06:28;;;;;;;3.25;0.93;;;;;;;;;;5065455;28;20029;-88
2021/03/27 14:09:09;;;;;;;1.40;0.70;;;;;;;;;;5053021;28;20123;-88
2021/03/27 14:11:55;;;;;;;3.83;1.10;;;;;;;;;;5063097;28;20029;-88
2021/03/27 14:14:28;;;;;;;2.90;1.13;;;;;;;;;;5031441;28;20048;-88
2021/03/27 14:17:04;;;;;;;4.18;1.55;;;;;;;;;;5064831;28;20021;-88
2021/03/27 14:19:38;;;;;;;2.47;1.20;;;;;;;;;;5053225;28;20476;-88
2021/03/27 14:22:23;;;;;;;3.75;1.30;;;;;;;;;;5042089;28;20120;-88
2021/03/27 14:25:08;;;;;;;2.08;1.00;;;;;;;;;;5052965;28;20037;-88
2021/03/27 14:27:38;;;;;;;1.27;0.98;;;;;;;;;;5052957;28;20035;-88
2021/03/27 14:30:22;;;;;;;3.42;1.00;;;;;;;;;;5041347;28;20029;-88
2021/03/27 14:33:09;;;;;;;1.55;0.90;;;;;;;;;;5053242;28;20067;-88
2021/03/27 14:35:45;;;;;;;2.00;1.10;;;;;;;;;;5057413;28;20020;-88
2021/03/27 14:38:18;;;;;;;3.10;0.90;;;;;;;;;;5040633;28;20028;-88
2021/03/27 14:41:05;;;;;;;1.17;0.85;;;;;;;;;;5064796;28;20029;-88
2021/03/27 14:43:34;;;;;;;5.28;0.90;;;;;;;;;;5053542;28;20485;-88
2021/03/27 14:46:14;;;;;;;1.75;0.80;;;;;;;;;;5060186;28;20029;-89
2021/03/27 14:48:57;;;;;;;1.80;0.77;;;;;;;;;;5054092;28;20112;-90
2021/03/27 14:51:42;;;;;;;2.70;0.80;;;;;;;;;;5062943;28;20029;-90
2021/03/27 14:54:20;;;;;;;6.30;0.80;;;;;;;;;;5054627;28;20484;-89
2021/03/27 14:56:48;;;;;;;2.50;0.80;;;;;;;;;;5055059;28;20028;-90
2021/03/27 14:59:19;;;;;;;3.22;1.00;;;;;;;;;;5062498;28;20059;-90
2021/03/27 15:01:53;;;;;;;2.85;0.85;;;;;;;;;;5064227;28;20088;-89
2021/03/27 15:04:24;;;;;;;4.93;1.00;;;;;;;;;;5065369;28;20021;-89
2021/03/27 15:06:53;;;;;;;4.20;1.13;;;;;;;;;;5068482;28;20024;-90
2021/03/27 15:09:29;;;;;;;3.13;1.00;;;;;;;;;;5058528;28;20083;-89
2021/03/27 15:11:57;;;;;;;2.22;0.95;;;;;;;;;;5053901;28;20029;-89
2021/03/27 15:14:23;;;;;;;4.43;1.10;;;;;;;;;;5053098;28;20060;-89
2021/03/27 15:16:49;;;;;;;3.83;1.23;;;;;;;;;;5056472;28;20043;-89
2021/03/27 15:19:34;;;;;;;4.00;0.90;;;;;;;;;;5053364;28;20029;-90
2021/03/27 15:22:12;;;;;;;5.25;1.13;;;;;;;;;;5053833;28;20029;-88
2021/03/27 15:27:44;;;;;;;4.78;1.42;;;;;;;;;;5054981;28;20427;-89
2021/03/27 15:30:15;;;;;;;2.50;1.40;;;;;;;;;;5057085;28;20128;-89
2021/03/27 15:33:01;;;;;;;5.88;1.35;;;;;;;;;;5048072;28;20043;-89